createdAt,value
2023-03-05T00:00:00.316Z,1017.80
2023-03-05T00:01:00.342Z,1017.78
2023-03-05T00:02:00.363Z,1017.76
2023-03-05T00:03:00.427Z,1017.74
2023-03-05T00:04:00.718Z,1017.72
2023-03-05T00:05:00.438Z,1017.71
2023-03-05T00:06:00.496Z,1017.73
2023-03-05T00:07:00.498Z,1017.74
2023-03-05T00:08:00.516Z,1017.73
2023-03-05T00:09:00.656Z,1017.69
2023-03-05T00:10:00.574Z,1017.70
2023-03-05T00:11:00.914Z,1017.65
2023-03-05T00:12:00.633Z,1017.69
2023-03-05T00:13:00.649Z,1017.67
2023-03-05T00:14:00.694Z,1017.66
2023-03-05T00:15:00.715Z,1017.66
2023-03-05T00:16:00.783Z,1017.65
2023-03-05T00:17:00.757Z,1017.63
2023-03-05T00:18:01.089Z,1017.68
2023-03-05T00:19:00.814Z,1017.67
2023-03-05T00:20:02.320Z,1017.66
2023-03-05T00:21:00.890Z,1017.65
2023-03-05T00:22:00.913Z,1017.64
2023-03-05T00:23:00.923Z,1017.65
2023-03-05T00:24:00.962Z,1017.67
2023-03-05T00:25:01.277Z,1017.63
2023-03-05T00:26:01.010Z,1017.61
2023-03-05T00:27:01.039Z,1017.64
2023-03-05T00:28:01.069Z,1017.62
2023-03-05T00:29:01.118Z,1017.61
2023-03-05T00:30:01.240Z,1017.63
2023-03-05T00:31:01.214Z,1017.62
2023-03-05T00:32:01.520Z,1017.63
2023-03-05T00:33:01.202Z,1017.59
2023-03-05T00:34:01.223Z,1017.60
2023-03-05T00:35:01.247Z,1017.58
2023-03-05T00:36:01.340Z,1017.57
2023-03-05T00:37:01.301Z,1017.58
2023-03-05T00:38:01.370Z,1017.57
2023-03-05T00:39:01.365Z,1017.56
2023-03-05T00:40:01.515Z,1017.58
2023-03-05T00:41:01.418Z,1017.58
2023-03-05T00:42:01.447Z,1017.56
2023-03-05T00:43:01.578Z,1017.53
2023-03-05T00:44:01.496Z,1017.53
2023-03-05T00:45:01.836Z,1017.54
2023-03-05T00:46:01.605Z,1017.51
2023-03-05T00:47:01.578Z,1017.51
2023-03-05T00:48:01.610Z,1017.49
2023-03-05T00:49:01.699Z,1017.52
2023-03-05T00:50:01.659Z,1017.50
2023-03-05T00:51:01.687Z,1017.50
2023-03-05T00:52:02.014Z,1017.45
2023-03-05T00:53:01.748Z,1017.43
2023-03-05T00:54:01.791Z,1017.43
2023-03-05T00:55:01.811Z,1017.39
2023-03-05T00:57:01.853Z,1017.39
2023-03-05T00:58:01.869Z,1017.35
2023-03-05T00:59:02.207Z,1017.32
2023-03-05T01:00:01.922Z,1017.33
2023-03-05T01:01:01.952Z,1017.32
2023-03-05T01:02:02.075Z,1017.32
2023-03-05T01:03:02.008Z,1017.31
2023-03-05T01:04:02.049Z,1017.35
2023-03-05T01:05:02.396Z,1017.31
2023-03-05T01:07:02.106Z,1017.37
2023-03-05T01:09:02.171Z,1017.33
2023-03-05T01:10:02.256Z,1017.32
2023-03-05T01:11:02.610Z,1017.35
2023-03-05T01:12:02.244Z,1017.31
2023-03-05T01:14:02.293Z,1017.30
2023-03-05T01:15:02.424Z,1017.25
2023-03-05T01:16:02.383Z,1017.25
2023-03-05T01:17:02.668Z,1017.25
2023-03-05T01:18:02.408Z,1017.23
2023-03-05T01:19:02.422Z,1017.23
2023-03-05T01:20:02.446Z,1017.23
2023-03-05T01:21:02.475Z,1017.22
2023-03-05T01:22:02.507Z,1017.23
2023-03-05T01:23:02.521Z,1017.22
2023-03-05T01:24:02.856Z,1017.21
2023-03-05T01:25:02.585Z,1017.21
2023-03-05T01:26:02.640Z,1017.16
2023-03-05T01:27:02.641Z,1017.14
2023-03-05T01:28:02.673Z,1017.12
2023-03-05T01:29:02.691Z,1017.12
2023-03-05T01:30:02.732Z,1017.14
2023-03-05T01:31:03.046Z,1017.09
2023-03-05T01:32:02.845Z,1017.10
2023-03-05T01:33:02.797Z,1017.07
2023-03-05T01:34:02.820Z,1017.06
2023-03-05T01:35:02.843Z,1017.04
2023-03-05T01:36:02.877Z,1016.98
2023-03-05T01:37:02.950Z,1016.98
2023-03-05T01:38:03.186Z,1016.99
2023-03-05T01:39:02.961Z,1016.96
2023-03-05T01:40:03.003Z,1016.93
2023-03-05T01:41:03.010Z,1016.97
2023-03-05T01:42:03.066Z,1016.93
2023-03-05T01:43:03.077Z,1016.93
2023-03-05T01:44:03.113Z,1016.89
2023-03-05T01:45:03.434Z,1016.92
2023-03-05T01:46:03.199Z,1016.91
2023-03-05T01:47:03.185Z,1016.91
2023-03-05T01:48:03.207Z,1016.93
2023-03-05T01:49:03.229Z,1016.91
2023-03-05T01:50:03.266Z,1016.90
2023-03-05T01:51:03.286Z,1016.90
2023-03-05T01:52:03.614Z,1016.91
2023-03-05T01:53:03.343Z,1016.90
2023-03-05T01:54:03.377Z,1016.89
2023-03-05T01:55:03.389Z,1016.88
2023-03-05T01:56:03.426Z,1016.89
2023-03-05T01:57:03.444Z,1016.87
2023-03-05T01:58:03.512Z,1016.85
2023-03-05T01:59:03.858Z,1016.84
2023-03-05T02:00:03.535Z,1016.81
2023-03-05T02:01:03.582Z,1016.82
2023-03-05T02:02:03.594Z,1016.79
2023-03-05T02:03:03.614Z,1016.81
2023-03-05T02:04:03.692Z,1016.81
2023-03-05T02:05:03.693Z,1016.78
2023-03-05T02:06:03.946Z,1016.76
2023-03-05T02:08:03.748Z,1016.80
2023-03-05T02:09:03.770Z,1016.70
2023-03-05T02:10:03.808Z,1016.71
2023-03-05T02:11:03.831Z,1016.68
2023-03-05T02:12:03.883Z,1016.72
2023-03-05T02:13:04.196Z,1016.68
2023-03-05T02:14:03.933Z,1016.65
2023-03-05T02:15:04.035Z,1016.65
2023-03-05T02:16:04.065Z,1016.63
2023-03-05T02:18:04.025Z,1016.56
2023-03-05T02:19:04.050Z,1016.57
2023-03-05T02:20:04.379Z,1016.57
2023-03-05T02:21:04.113Z,1016.54
2023-03-05T02:22:04.135Z,1016.49
2023-03-05T02:23:04.155Z,1016.50
2023-03-05T02:24:04.184Z,1016.49
2023-03-05T02:25:04.217Z,1016.47
2023-03-05T02:26:04.243Z,1016.48
2023-03-05T02:27:04.567Z,1016.43
2023-03-05T02:28:04.295Z,1016.44
2023-03-05T02:29:04.326Z,1016.43
2023-03-05T02:30:04.370Z,1016.42
2023-03-05T02:31:04.383Z,1016.40
2023-03-05T02:32:04.574Z,1016.39
2023-03-05T02:33:04.444Z,1016.39
2023-03-05T02:34:04.717Z,1016.39
2023-03-05T02:35:04.510Z,1016.33
2023-03-05T02:36:04.526Z,1016.37
2023-03-05T02:37:04.749Z,1016.33
2023-03-05T02:38:04.575Z,1016.35
2023-03-05T02:39:04.589Z,1016.35
2023-03-05T02:40:04.619Z,1016.35
2023-03-05T02:41:04.899Z,1016.33
2023-03-05T02:42:04.670Z,1016.34
2023-03-05T02:44:04.724Z,1016.35
2023-03-05T02:45:04.755Z,1016.33
2023-03-05T02:46:04.881Z,1016.26
2023-03-05T02:47:04.812Z,1016.26
2023-03-05T02:48:05.144Z,1016.24
2023-03-05T02:49:04.971Z,1016.23
2023-03-05T02:50:04.997Z,1016.26
2023-03-05T02:51:04.917Z,1016.27
2023-03-05T02:52:04.974Z,1016.28
2023-03-05T02:53:04.985Z,1016.24
2023-03-05T02:54:05.309Z,1016.23
2023-03-05T02:55:05.042Z,1016.23
2023-03-05T02:56:05.160Z,1016.26
2023-03-05T02:57:05.100Z,1016.24
2023-03-05T02:58:05.187Z,1016.20
2023-03-05T02:59:05.163Z,1016.23
2023-03-05T03:00:05.510Z,1016.18
2023-03-05T03:01:05.227Z,1016.18
2023-03-05T03:02:05.237Z,1016.19
2023-03-05T03:03:05.266Z,1016.15
2023-03-05T03:04:05.280Z,1016.15
2023-03-05T03:05:05.307Z,1016.15
2023-03-05T03:06:05.732Z,1016.12
2023-03-05T03:07:05.441Z,1016.12
2023-03-05T03:08:05.380Z,1016.10
2023-03-05T03:09:05.435Z,1016.05
2023-03-05T03:10:05.445Z,1016.11
2023-03-05T03:11:05.465Z,1016.07
2023-03-05T03:12:05.494Z,1016.07
2023-03-05T03:13:05.822Z,1016.07
2023-03-05T03:14:05.549Z,1016.09
2023-03-05T03:15:05.569Z,1016.09
2023-03-05T03:16:05.599Z,1016.07
2023-03-05T03:17:05.723Z,1016.07
2023-03-05T03:18:05.682Z,1016.05
2023-03-05T03:19:05.680Z,1016.01
2023-03-05T03:20:06.010Z,1016.01
2023-03-05T03:22:05.841Z,1015.97
2023-03-05T03:23:06.653Z,1016.01
2023-03-05T03:24:05.819Z,1015.95
2023-03-05T03:25:05.845Z,1015.98
2023-03-05T03:26:05.880Z,1015.98
2023-03-05T03:27:06.204Z,1015.95
2023-03-05T03:28:05.924Z,1015.90
2023-03-05T03:29:06.072Z,1015.88
2023-03-05T03:30:06.038Z,1015.86
2023-03-05T03:31:06.116Z,1015.81
2023-03-05T03:32:06.185Z,1015.83
2023-03-05T03:33:06.084Z,1015.84
2023-03-05T03:34:06.409Z,1015.82
2023-03-05T03:35:06.133Z,1015.83
2023-03-05T03:36:06.150Z,1015.81
2023-03-05T03:37:06.180Z,1015.75
2023-03-05T03:38:06.300Z,1015.72
2023-03-05T03:39:06.232Z,1015.75
2023-03-05T03:40:06.256Z,1015.76
2023-03-05T03:41:06.810Z,1015.75
2023-03-05T03:42:06.312Z,1015.74
2023-03-05T03:43:06.341Z,1015.77
2023-03-05T03:44:06.363Z,1015.72
2023-03-05T03:45:06.386Z,1015.72
2023-03-05T03:46:06.530Z,1015.72
2023-03-05T03:47:06.452Z,1015.69
2023-03-05T03:48:06.874Z,1015.71
2023-03-05T03:49:06.514Z,1015.65
2023-03-05T03:50:06.566Z,1015.66
2023-03-05T03:52:06.613Z,1015.64
2023-03-05T03:53:06.610Z,1015.62
2023-03-05T03:54:06.650Z,1015.62
2023-03-05T03:55:07.075Z,1015.64
2023-03-05T03:56:06.690Z,1015.64
2023-03-05T03:57:06.720Z,1015.65
2023-03-05T03:58:06.745Z,1015.63
2023-03-05T03:59:06.780Z,1015.62
2023-03-05T04:00:06.806Z,1015.61
2023-03-05T04:01:06.835Z,1015.60
2023-03-05T04:02:07.203Z,1015.60
2023-03-05T04:03:06.878Z,1015.61
2023-03-05T04:04:07.092Z,1015.57
2023-03-05T04:06:06.990Z,1015.57
2023-03-05T04:07:06.988Z,1015.55
2023-03-05T04:08:07.028Z,1015.52
2023-03-05T04:09:07.347Z,1015.55
2023-03-05T04:10:07.078Z,1015.51
2023-03-05T04:11:07.097Z,1015.52
2023-03-05T04:12:07.125Z,1015.47
2023-03-05T04:13:07.156Z,1015.50
2023-03-05T04:15:07.210Z,1015.50
2023-03-05T04:16:07.641Z,1015.51
2023-03-05T04:17:07.267Z,1015.45
2023-03-05T04:18:07.301Z,1015.45
2023-03-05T04:19:07.315Z,1015.46
2023-03-05T04:20:07.343Z,1015.41
2023-03-05T04:21:07.372Z,1015.39
2023-03-05T04:22:07.423Z,1015.42
2023-03-05T04:23:07.724Z,1015.38
2023-03-05T04:24:07.475Z,1015.38
2023-03-05T04:25:07.489Z,1015.39
2023-03-05T04:26:07.524Z,1015.39
2023-03-05T04:27:07.532Z,1015.34
2023-03-05T04:28:07.571Z,1015.39
2023-03-05T04:29:07.598Z,1015.37
2023-03-05T04:30:07.927Z,1015.34
2023-03-05T04:32:07.681Z,1015.35
2023-03-05T04:34:07.722Z,1015.31
2023-03-05T04:35:07.747Z,1015.29
2023-03-05T04:36:07.803Z,1015.27
2023-03-05T04:37:08.109Z,1015.29
2023-03-05T04:38:07.845Z,1015.22
2023-03-05T04:40:07.887Z,1015.25
2023-03-05T04:41:07.906Z,1015.20
2023-03-05T04:42:07.935Z,1015.20
2023-03-05T04:43:07.988Z,1015.17
2023-03-05T04:44:08.290Z,1015.20
2023-03-05T04:45:08.016Z,1015.17
2023-03-05T04:46:08.078Z,1015.14
2023-03-05T04:47:08.068Z,1015.15
2023-03-05T04:48:08.101Z,1015.14
2023-03-05T04:49:08.127Z,1015.12
2023-03-05T04:50:08.502Z,1015.09
2023-03-05T04:51:08.192Z,1015.12
2023-03-05T04:52:08.209Z,1015.12
2023-03-05T04:53:08.236Z,1015.12
2023-03-05T04:54:08.280Z,1015.11
2023-03-05T04:55:08.286Z,1015.09
2023-03-05T04:56:08.622Z,1015.07
2023-03-05T04:57:08.342Z,1015.08
2023-03-05T04:58:08.371Z,1015.08
2023-03-05T04:59:08.414Z,1015.08
2023-03-05T05:00:08.423Z,1015.07
2023-03-05T05:01:08.473Z,1015.04
2023-03-05T05:02:08.783Z,1015.04
2023-03-05T05:03:08.568Z,1015.03
2023-03-05T05:04:08.544Z,1015.02
2023-03-05T05:05:08.566Z,1015.01
2023-03-05T05:06:08.613Z,1015.04
2023-03-05T05:07:08.744Z,1015.00
2023-03-05T05:08:08.638Z,1015.01
2023-03-05T05:09:08.975Z,1015.00
2023-03-05T05:10:08.719Z,1014.99
2023-03-05T05:12:08.765Z,1014.99
2023-03-05T05:13:08.782Z,1014.99
2023-03-05T05:14:08.868Z,1014.99
2023-03-05T05:15:08.846Z,1014.97
2023-03-05T05:16:09.215Z,1014.98
2023-03-05T05:17:08.902Z,1014.97
2023-03-05T05:18:09.018Z,1014.96
2023-03-05T05:19:08.978Z,1014.94
2023-03-05T05:20:09.068Z,1014.92
2023-03-05T05:21:08.998Z,1014.95
2023-03-05T05:22:09.034Z,1014.91
2023-03-05T05:23:09.362Z,1014.89
2023-03-05T05:24:09.104Z,1014.90
2023-03-05T05:25:09.108Z,1014.91
2023-03-05T05:27:09.178Z,1014.85
2023-03-05T05:28:09.248Z,1014.86
2023-03-05T05:29:09.240Z,1014.82
2023-03-05T05:30:09.501Z,1014.82
2023-03-05T05:31:09.334Z,1014.81
2023-03-05T05:32:09.309Z,1014.79
2023-03-05T05:33:09.329Z,1014.78
2023-03-05T05:34:09.366Z,1014.79
2023-03-05T05:35:09.379Z,1014.77
2023-03-05T05:36:09.510Z,1014.79
2023-03-05T05:37:09.744Z,1014.75
2023-03-05T05:38:09.471Z,1014.80
2023-03-05T05:39:09.501Z,1014.80
2023-03-05T05:40:09.574Z,1014.72
2023-03-05T05:41:09.547Z,1014.77
2023-03-05T05:42:09.579Z,1014.77
2023-03-05T05:43:09.839Z,1014.75
2023-03-05T05:44:09.933Z,1014.81
2023-03-05T05:45:09.955Z,1014.80
2023-03-05T05:46:09.838Z,1014.78
2023-03-05T05:50:09.893Z,1014.79
2023-03-05T05:51:10.076Z,1014.78
2023-03-05T05:52:09.850Z,1014.81
2023-03-05T05:53:09.882Z,1014.78
2023-03-05T05:54:09.914Z,1014.76
2023-03-05T05:55:09.939Z,1014.76
2023-03-05T05:56:09.966Z,1014.75
2023-03-05T05:57:09.997Z,1014.77
2023-03-05T05:58:10.320Z,1014.77
2023-03-05T05:59:10.053Z,1014.78
2023-03-05T06:00:10.088Z,1014.77
2023-03-05T06:01:10.108Z,1014.77
2023-03-05T06:02:10.177Z,1014.75
2023-03-05T06:03:10.303Z,1014.76
2023-03-05T06:04:10.203Z,1014.74
2023-03-05T06:05:10.505Z,1014.72
2023-03-05T06:06:10.228Z,1014.73
2023-03-05T06:07:10.311Z,1014.70
2023-03-05T06:08:10.282Z,1014.68
2023-03-05T06:09:10.311Z,1014.70
2023-03-05T06:10:10.359Z,1014.63
2023-03-05T06:11:10.364Z,1014.65
2023-03-05T06:12:10.642Z,1014.65
2023-03-05T06:13:10.436Z,1014.63
2023-03-05T06:14:10.454Z,1014.61
2023-03-05T06:15:10.515Z,1014.61
2023-03-05T06:16:10.523Z,1014.59
2023-03-05T06:17:12.925Z,1014.58
2023-03-05T06:18:10.716Z,1014.60
2023-03-05T06:19:10.841Z,1014.59
2023-03-05T06:20:10.826Z,1014.59
2023-03-05T06:21:10.648Z,1014.57
2023-03-05T06:22:10.663Z,1014.55
2023-03-05T06:23:10.688Z,1014.54
2023-03-05T06:24:10.717Z,1014.57
2023-03-05T06:25:10.746Z,1014.61
2023-03-05T06:27:11.204Z,1014.60
2023-03-05T06:28:10.835Z,1014.56
2023-03-05T06:29:10.855Z,1014.58
2023-03-05T06:30:12.462Z,1014.59
2023-03-05T06:31:11.028Z,1014.55
2023-03-05T06:32:10.959Z,1014.53
2023-03-05T06:33:10.970Z,1014.56
2023-03-05T06:34:11.294Z,1014.57
2023-03-05T06:35:11.123Z,1014.60
2023-03-05T06:36:11.054Z,1014.60
2023-03-05T06:37:11.183Z,1014.59
2023-03-05T06:38:11.101Z,1014.60
2023-03-05T06:39:11.130Z,1014.59
2023-03-05T06:40:11.192Z,1014.61
2023-03-05T06:41:11.431Z,1014.58
2023-03-05T06:42:11.211Z,1014.60
2023-03-05T06:43:11.247Z,1014.59
2023-03-05T06:44:11.262Z,1014.64
2023-03-05T06:45:11.286Z,1014.64
2023-03-05T06:46:11.402Z,1014.63
2023-03-05T06:47:11.373Z,1014.63
2023-03-05T06:48:11.683Z,1014.62
2023-03-05T06:49:11.402Z,1014.60
2023-03-05T06:50:11.480Z,1014.56
2023-03-05T06:51:11.461Z,1014.59
2023-03-05T06:52:11.503Z,1014.57
2023-03-05T06:53:11.508Z,1014.55
2023-03-05T06:54:11.547Z,1014.55
2023-03-05T06:55:11.860Z,1014.60
2023-03-05T06:56:11.595Z,1014.58
2023-03-05T06:57:11.637Z,1014.57
2023-03-05T06:58:11.654Z,1014.54
2023-03-05T06:59:11.687Z,1014.54
2023-03-05T07:00:11.718Z,1014.52
2023-03-05T07:01:11.763Z,1014.54
2023-03-05T07:02:12.230Z,1014.58
2023-03-05T07:04:11.930Z,1014.57
2023-03-05T07:05:11.838Z,1014.59
2023-03-05T07:06:11.858Z,1014.62
2023-03-05T07:07:11.903Z,1014.61
2023-03-05T07:08:11.934Z,1014.62
2023-03-05T07:09:12.247Z,1014.59
2023-03-05T07:12:12.025Z,1014.55
2023-03-05T07:13:12.053Z,1014.54
2023-03-05T07:14:12.074Z,1014.57
2023-03-05T07:15:12.406Z,1014.56
2023-03-05T07:16:12.242Z,1014.57
2023-03-05T07:17:12.171Z,1014.56
2023-03-05T07:18:12.205Z,1014.51
2023-03-05T07:19:12.222Z,1014.57
2023-03-05T07:20:12.274Z,1014.55
2023-03-05T07:21:12.571Z,1014.53
2023-03-05T07:22:12.302Z,1014.54
2023-03-05T07:23:12.332Z,1014.52
2023-03-05T07:24:12.369Z,1014.55
2023-03-05T07:25:12.382Z,1014.53
2023-03-05T07:27:12.679Z,1014.52
2023-03-05T07:28:12.460Z,1014.53
2023-03-05T07:29:12.487Z,1014.49
2023-03-05T07:30:12.517Z,1014.48
2023-03-05T07:31:12.624Z,1014.48
2023-03-05T07:32:12.612Z,1014.50
2023-03-05T07:33:12.604Z,1014.49
2023-03-05T07:34:12.987Z,1014.48
2023-03-05T07:35:12.685Z,1014.47
2023-03-05T07:36:12.714Z,1014.52
2023-03-05T07:37:12.706Z,1014.51
2023-03-05T07:38:12.733Z,1014.52
2023-03-05T07:39:12.776Z,1014.48
2023-03-05T07:40:12.794Z,1014.47
2023-03-05T07:41:13.072Z,1014.48
2023-03-05T07:43:12.873Z,1014.45
2023-03-05T07:44:12.894Z,1014.49
2023-03-05T07:45:12.936Z,1014.47
2023-03-05T07:47:13.298Z,1014.46
2023-03-05T07:48:13.010Z,1014.45
2023-03-05T07:49:13.038Z,1014.47
2023-03-05T07:50:13.071Z,1014.43
2023-03-05T07:51:13.090Z,1014.46
2023-03-05T07:52:13.146Z,1014.44
2023-03-05T07:54:13.572Z,1014.41
2023-03-05T07:55:13.206Z,1014.41
2023-03-05T07:56:13.381Z,1014.39
2023-03-05T07:57:13.266Z,1014.40
2023-03-05T07:58:13.310Z,1014.42
2023-03-05T07:59:13.319Z,1014.38
2023-03-05T08:00:13.348Z,1014.41
2023-03-05T08:01:13.660Z,1014.40
2023-03-05T08:02:13.435Z,1014.40
2023-03-05T08:03:13.425Z,1014.39
2023-03-05T08:04:13.590Z,1014.40
2023-03-05T08:05:13.484Z,1014.39
2023-03-05T08:06:13.496Z,1014.40
2023-03-05T08:07:13.529Z,1014.35
2023-03-05T08:09:13.900Z,1014.36
2023-03-05T08:10:13.642Z,1014.35
2023-03-05T08:11:13.663Z,1014.37
2023-03-05T08:12:13.663Z,1014.34
2023-03-05T08:13:13.702Z,1014.33
2023-03-05T08:14:13.744Z,1014.31
2023-03-05T08:15:13.783Z,1014.30
2023-03-05T08:16:14.229Z,1014.25
2023-03-05T08:17:13.805Z,1014.24
2023-03-05T08:19:13.864Z,1014.26
2023-03-05T08:20:13.894Z,1014.21
2023-03-05T08:21:13.931Z,1014.22
2023-03-05T08:22:13.940Z,1014.18
2023-03-05T08:23:14.290Z,1014.20
2023-03-05T08:24:14.004Z,1014.18
2023-03-05T08:25:14.154Z,1014.16
2023-03-05T08:26:14.049Z,1014.17
2023-03-05T08:27:14.070Z,1014.16
2023-03-05T08:28:14.105Z,1014.14
2023-03-05T08:29:14.143Z,1014.14
2023-03-05T08:30:14.479Z,1014.14
2023-03-05T08:31:14.202Z,1014.15
2023-03-05T08:32:14.223Z,1014.11
2023-03-05T08:33:14.270Z,1014.11
2023-03-05T08:34:14.286Z,1014.12
2023-03-05T08:35:14.298Z,1014.08
2023-03-05T08:36:14.325Z,1014.08
2023-03-05T08:37:14.342Z,1014.07
2023-03-05T08:38:14.374Z,1014.07
2023-03-05T08:39:14.397Z,1014.05
2023-03-05T08:40:14.427Z,1014.08
2023-03-05T08:41:14.471Z,1014.03
2023-03-05T08:42:14.482Z,1014.05
2023-03-05T08:43:14.780Z,1014.02
2023-03-05T08:45:14.564Z,1014.03
2023-03-05T08:46:14.631Z,1013.96
2023-03-05T08:47:14.619Z,1014.01
2023-03-05T08:48:14.649Z,1013.99
2023-03-05T08:49:14.974Z,1014.03
2023-03-05T08:51:14.743Z,1014.01
2023-03-05T08:52:14.763Z,1014.01
2023-03-05T08:53:14.808Z,1014.02
2023-03-05T08:54:14.812Z,1014.02
2023-03-05T08:55:15.144Z,1013.97
2023-03-05T08:57:14.914Z,1013.98
2023-03-05T08:58:14.938Z,1014.01
2023-03-05T08:59:14.946Z,1014.00
2023-03-05T09:00:14.984Z,1013.97
2023-03-05T09:01:15.321Z,1013.98
2023-03-05T09:02:15.057Z,1013.93
2023-03-05T09:03:15.299Z,1013.87
2023-03-05T09:04:15.084Z,1013.85
2023-03-05T09:05:15.120Z,1013.85
2023-03-05T09:06:15.152Z,1013.80
2023-03-05T09:07:15.178Z,1013.80
2023-03-05T09:08:15.533Z,1013.76
2023-03-05T09:09:15.360Z,1013.80
2023-03-05T09:10:15.248Z,1013.81
2023-03-05T09:11:15.285Z,1013.78
2023-03-05T09:12:15.305Z,1013.81
2023-03-05T09:13:15.352Z,1013.78
2023-03-05T09:14:15.403Z,1013.79
2023-03-05T09:15:15.688Z,1013.77
2023-03-05T09:16:15.476Z,1013.76
2023-03-05T09:17:15.441Z,1013.78
2023-03-05T09:18:15.495Z,1013.82
2023-03-05T09:19:15.515Z,1013.78
2023-03-05T09:20:15.620Z,1013.79
2023-03-05T09:21:15.585Z,1013.79
2023-03-05T09:22:15.880Z,1013.82
2023-03-05T09:23:15.626Z,1013.80
2023-03-05T09:24:15.647Z,1013.77
2023-03-05T09:25:15.665Z,1013.75
2023-03-05T09:26:15.732Z,1013.75
2023-03-05T09:27:15.719Z,1013.76
2023-03-05T09:28:15.744Z,1013.74
2023-03-05T09:29:16.099Z,1013.68
2023-03-05T09:30:15.793Z,1013.73
2023-03-05T09:31:15.864Z,1013.76
2023-03-05T09:32:15.900Z,1013.74
2023-03-05T09:33:15.883Z,1013.68
2023-03-05T09:34:15.932Z,1013.61
2023-03-05T09:35:15.959Z,1013.62
2023-03-05T09:36:16.267Z,1013.61
2023-03-05T09:37:15.987Z,1013.60
2023-03-05T09:38:16.034Z,1013.54
2023-03-05T09:39:16.040Z,1013.49
2023-03-05T09:41:16.102Z,1013.48
2023-03-05T09:42:16.129Z,1013.47
2023-03-05T09:43:16.456Z,1013.47
2023-03-05T09:44:16.186Z,1013.50
2023-03-05T09:45:16.235Z,1013.50
2023-03-05T09:46:16.290Z,1013.43
2023-03-05T09:47:16.266Z,1013.45
2023-03-05T09:48:16.293Z,1013.48
2023-03-05T09:49:16.320Z,1013.53
2023-03-05T09:50:16.672Z,1013.49
2023-03-05T09:51:16.381Z,1013.41
2023-03-05T09:52:16.411Z,1013.42
2023-03-05T09:53:16.432Z,1013.45
2023-03-05T09:55:16.484Z,1013.52
2023-03-05T09:56:16.520Z,1013.48
2023-03-05T09:57:16.860Z,1013.50
2023-03-05T09:58:16.567Z,1013.44
2023-03-05T09:59:16.608Z,1013.40
2023-03-05T10:00:16.687Z,1013.40
2023-03-05T10:01:16.675Z,1013.44
2023-03-05T10:02:16.687Z,1013.51
2023-03-05T10:03:16.743Z,1013.51
2023-03-05T10:04:17.108Z,1013.43
2023-03-05T10:05:16.770Z,1013.46
2023-03-05T10:06:16.803Z,1013.49
2023-03-05T10:07:16.813Z,1013.41
2023-03-05T10:08:16.843Z,1013.41
2023-03-05T10:09:16.875Z,1013.40
2023-03-05T10:10:16.896Z,1013.45
2023-03-05T10:11:17.171Z,1013.46
2023-03-05T10:12:16.991Z,1013.43
2023-03-05T10:13:17.047Z,1013.40
2023-03-05T10:14:17.014Z,1013.39
2023-03-05T10:15:17.093Z,1013.35
2023-03-05T10:18:17.446Z,1013.31
2023-03-05T10:19:17.229Z,1013.27
2023-03-05T10:21:17.203Z,1013.20
2023-03-05T10:23:17.252Z,1013.18
2023-03-05T10:24:17.330Z,1013.20
2023-03-05T10:25:17.682Z,1013.17
2023-03-05T10:26:17.353Z,1013.16
2023-03-05T10:27:17.461Z,1013.17
2023-03-05T10:28:17.391Z,1013.20
2023-03-05T10:29:17.446Z,1013.23
2023-03-05T10:30:17.467Z,1013.25
2023-03-05T10:31:17.566Z,1013.22
2023-03-05T10:32:18.040Z,1013.16
2023-03-05T10:34:17.641Z,1013.13
2023-03-05T10:35:17.678Z,1013.12
2023-03-05T10:36:17.619Z,1013.10
2023-03-05T10:37:17.665Z,1013.11
2023-03-05T10:38:17.971Z,1013.12
2023-03-05T10:39:17.698Z,1013.15
2023-03-05T10:40:17.721Z,1013.12
2023-03-05T10:41:17.882Z,1013.09
2023-03-05T10:42:17.795Z,1013.09
2023-03-05T10:43:17.817Z,1013.11
2023-03-05T10:44:18.134Z,1013.04
2023-03-05T10:45:17.849Z,1013.10
2023-03-05T10:46:17.980Z,1013.12
2023-03-05T10:47:17.907Z,1013.12
2023-03-05T10:48:17.943Z,1013.13
2023-03-05T10:49:17.966Z,1013.09
2023-03-05T10:50:18.430Z,1013.07
2023-03-05T10:51:18.018Z,1013.06
2023-03-05T10:52:18.747Z,1013.03
2023-03-05T10:53:18.071Z,1013.00
2023-03-05T10:54:18.109Z,1013.00
2023-03-05T10:55:18.132Z,1012.98
2023-03-05T10:56:18.255Z,1012.96
2023-03-05T10:57:18.481Z,1012.96
2023-03-05T10:59:18.238Z,1012.96
2023-03-05T11:00:18.349Z,1012.95
2023-03-05T11:01:18.338Z,1012.97
2023-03-05T11:02:18.364Z,1012.95
2023-03-05T11:03:18.351Z,1012.95
2023-03-05T11:04:18.685Z,1012.92
2023-03-05T11:05:18.408Z,1012.91
2023-03-05T11:06:18.447Z,1012.89
2023-03-05T11:07:18.458Z,1012.88
2023-03-05T11:08:18.475Z,1012.85
2023-03-05T11:09:18.604Z,1012.88
2023-03-05T11:10:18.589Z,1012.86
2023-03-05T11:11:18.862Z,1012.89
2023-03-05T11:12:18.599Z,1012.87
2023-03-05T11:13:18.614Z,1012.85
2023-03-05T11:14:18.647Z,1012.85
2023-03-05T11:15:18.682Z,1012.82
2023-03-05T11:16:20.868Z,1012.82
2023-03-05T11:17:18.733Z,1012.80
2023-03-05T11:18:19.050Z,1012.75
2023-03-05T11:19:18.777Z,1012.71
2023-03-05T11:20:18.843Z,1012.70
2023-03-05T11:21:18.833Z,1012.70
2023-03-05T11:22:18.885Z,1012.67
2023-03-05T11:23:18.888Z,1012.63
2023-03-05T11:24:18.917Z,1012.67
2023-03-05T11:25:19.234Z,1012.63
2023-03-05T11:26:18.967Z,1012.64
2023-03-05T11:27:18.993Z,1012.69
2023-03-05T11:28:30.785Z,1012.70
2023-03-05T11:29:19.053Z,1012.66
2023-03-05T11:30:19.078Z,1012.62
2023-03-05T11:31:19.264Z,1012.63
2023-03-05T11:32:19.486Z,1012.66
2023-03-05T11:33:19.160Z,1012.62
2023-03-05T11:34:19.185Z,1012.64
2023-03-05T11:35:19.259Z,1012.63
2023-03-05T11:36:19.238Z,1012.63
2023-03-05T11:37:19.274Z,1012.61
2023-03-05T11:38:19.322Z,1012.62
2023-03-05T11:39:19.638Z,1012.64
2023-03-05T11:40:19.374Z,1012.64
2023-03-05T11:42:19.411Z,1012.60
2023-03-05T11:43:19.426Z,1012.64
2023-03-05T11:44:19.495Z,1012.65
2023-03-05T11:45:19.496Z,1012.64
2023-03-05T11:46:19.867Z,1012.63
2023-03-05T11:47:19.553Z,1012.60
2023-03-05T11:48:19.571Z,1012.59
2023-03-05T11:49:19.594Z,1012.57
2023-03-05T11:50:19.628Z,1012.56
2023-03-05T11:51:19.676Z,1012.55
2023-03-05T11:52:19.684Z,1012.57
2023-03-05T11:53:20.003Z,1012.58
2023-03-05T11:54:19.754Z,1012.57
2023-03-05T11:56:19.793Z,1012.56
2023-03-05T11:57:19.823Z,1012.53
2023-03-05T11:58:19.846Z,1012.49
2023-03-05T11:59:19.876Z,1012.52
2023-03-05T12:00:20.998Z,1012.50
2023-03-05T12:01:19.960Z,1012.47
2023-03-05T12:02:20.018Z,1012.40
2023-03-05T12:03:20.017Z,1012.38
2023-03-05T12:04:20.030Z,1012.34
2023-03-05T12:05:20.038Z,1012.32
2023-03-05T12:06:20.075Z,1012.30
2023-03-05T12:07:20.395Z,1012.28
2023-03-05T12:08:20.122Z,1012.24
2023-03-05T12:09:20.148Z,1012.23
2023-03-05T12:10:20.204Z,1012.24
2023-03-05T12:11:20.479Z,1012.23
2023-03-05T12:12:20.238Z,1012.24
2023-03-05T12:13:20.271Z,1012.21
2023-03-05T12:14:20.627Z,1012.19
2023-03-05T12:15:20.389Z,1012.16
2023-03-05T12:16:20.393Z,1012.14
2023-03-05T12:18:20.473Z,1012.08
2023-03-05T12:19:20.426Z,1012.05
2023-03-05T12:20:20.470Z,1012.05
2023-03-05T12:21:20.781Z,1012.03
2023-03-05T12:22:20.504Z,1012.04
2023-03-05T12:25:20.581Z,1012.02
2023-03-05T12:26:20.638Z,1011.99
2023-03-05T12:27:20.643Z,1011.99
2023-03-05T12:28:20.975Z,1011.97
2023-03-05T12:29:20.694Z,1011.91
2023-03-05T12:30:21.827Z,1011.88
2023-03-05T12:31:20.785Z,1011.86
2023-03-05T12:32:20.856Z,1011.85
2023-03-05T12:33:20.811Z,1011.81
2023-03-05T12:34:21.098Z,1011.81
2023-03-05T12:35:20.891Z,1011.81
2023-03-05T12:36:21.007Z,1011.78
2023-03-05T12:37:20.923Z,1011.75
2023-03-05T12:38:27.260Z,1011.74
2023-03-05T12:39:20.978Z,1011.74
2023-03-05T12:40:21.305Z,1011.69
2023-03-05T12:41:21.027Z,1011.67
2023-03-05T12:42:21.081Z,1011.67
2023-03-05T12:43:21.088Z,1011.62
2023-03-05T12:44:21.127Z,1011.63
2023-03-05T12:45:21.137Z,1011.60
2023-03-05T12:46:21.509Z,1011.57
2023-03-05T12:47:21.216Z,1011.55
2023-03-05T12:48:21.260Z,1011.49
2023-03-05T12:49:21.257Z,1011.51
2023-03-05T12:51:21.305Z,1011.46